sensor_id;sensor_type;location;lat;lon;timestamp;P1;durP1;ratioP1;P2;durP2;ratioP2
4102;SDS011;2065;49.790;9.620;2022-10-15T00:00:45;2.63;;;1.73;;
4102;SDS011;2065;49.790;9.620;2022-10-15T00:03:12;3.87;;;2.33;;
4102;SDS011;2065;49.790;9.620;2022-10-15T00:05:39;1.70;;;1.60;;
4102;SDS011;2065;49.790;9.620;2022-10-15T00:08:08;3.80;;;1.90;;
4102;SDS011;2065;49.790;9.620;2022-10-15T00:10:37;4.10;;;1.73;;
4102;SDS011;2065;49.790;9.620;2022-10-15T00:13:05;1.87;;;1.60;;
4102;SDS011;2065;49.790;9.620;2022-10-15T00:15:34;3.37;;;1.53;;
4102;SDS011;2065;49.790;9.620;2022-10-15T00:18:01;1.43;;;1.33;;
4102;SDS011;2065;49.790;9.620;2022-10-15T00:20:28;4.20;;;1.90;;
4102;SDS011;2065;49.790;9.620;2022-10-15T00:22:55;3.00;;;1.90;;
4102;SDS011;2065;49.790;9.620;2022-10-15T00:25:23;4.43;;;1.70;;
4102;SDS011;2065;49.790;9.620;2022-10-15T00:27:51;2.80;;;1.57;;
4102;SDS011;2065;49.790;9.620;2022-10-15T00:30:18;1.83;;;1.73;;
4102;SDS011;2065;49.790;9.620;2022-10-15T00:32:45;2.30;;;2.03;;
4102;SDS011;2065;49.790;9.620;2022-10-15T00:35:12;1.57;;;1.47;;
4102;SDS011;2065;49.790;9.620;2022-10-15T00:37:39;1.93;;;1.83;;
4102;SDS011;2065;49.790;9.620;2022-10-15T00:40:08;2.00;;;1.80;;
4102;SDS011;2065;49.790;9.620;2022-10-15T00:42:39;3.47;;;1.57;;
4102;SDS011;2065;49.790;9.620;2022-10-15T00:45:09;1.67;;;1.57;;
4102;SDS011;2065;49.790;9.620;2022-10-15T00:47:38;1.50;;;1.40;;
4102;SDS011;2065;49.790;9.620;2022-10-15T00:50:08;1.50;;;1.40;;
4102;SDS011;2065;49.790;9.620;2022-10-15T00:52:40;2.30;;;1.43;;
4102;SDS011;2065;49.790;9.620;2022-10-15T00:55:10;1.90;;;1.70;;
4102;SDS011;2065;49.790;9.620;2022-10-15T00:57:40;1.93;;;1.60;;
4102;SDS011;2065;49.790;9.620;2022-10-15T01:00:13;2.33;;;1.87;;
4102;SDS011;2065;49.790;9.620;2022-10-15T01:02:41;2.20;;;2.00;;
4102;SDS011;2065;49.790;9.620;2022-10-15T01:05:08;2.10;;;1.90;;
4102;SDS011;2065;49.790;9.620;2022-10-15T01:07:38;5.03;;;2.27;;
4102;SDS011;2065;49.790;9.620;2022-10-15T01:10:06;2.10;;;1.90;;
4102;SDS011;2065;49.790;9.620;2022-10-15T01:12:39;2.27;;;2.07;;
4102;SDS011;2065;49.790;9.620;2022-10-15T01:15:20;1.87;;;1.50;;
4102;SDS011;2065;49.790;9.620;2022-10-15T01:17:50;2.00;;;1.80;;
4102;SDS011;2065;49.790;9.620;2022-10-15T01:20:28;8.03;;;2.00;;
4102;SDS011;2065;49.790;9.620;2022-10-15T01:29:20;2.53;;;2.33;;
4102;SDS011;2065;49.790;9.620;2022-10-15T01:31:58;2.60;;;2.40;;
4102;SDS011;2065;49.790;9.620;2022-10-15T01:34:31;3.00;;;2.10;;
4102;SDS011;2065;49.790;9.620;2022-10-15T01:37:04;2.23;;;2.03;;
4102;SDS011;2065;49.790;9.620;2022-10-15T01:39:37;7.20;;;2.10;;
4102;SDS011;2065;49.790;9.620;2022-10-15T01:42:10;1.60;;;1.50;;
4102;SDS011;2065;49.790;9.620;2022-10-15T01:44:42;2.20;;;2.00;;
4102;SDS011;2065;49.790;9.620;2022-10-15T01:47:23;5.40;;;1.60;;
4102;SDS011;2065;49.790;9.620;2022-10-15T01:49:55;2.10;;;1.70;;
4102;SDS011;2065;49.790;9.620;2022-10-15T01:52:26;2.30;;;1.37;;
4102;SDS011;2065;49.790;9.620;2022-10-15T01:54:56;2.60;;;2.40;;
4102;SDS011;2065;49.790;9.620;2022-10-15T01:57:24;2.20;;;2.00;;
4102;SDS011;2065;49.790;9.620;2022-10-15T01:59:56;3.40;;;2.30;;
4102;SDS011;2065;49.790;9.620;2022-10-15T02:02:25;3.50;;;2.70;;
4102;SDS011;2065;49.790;9.620;2022-10-15T02:04:52;2.97;;;2.60;;
4102;SDS011;2065;49.790;9.620;2022-10-15T02:07:24;3.43;;;3.07;;
4102;SDS011;2065;49.790;9.620;2022-10-15T02:10:03;4.63;;;2.13;;
4102;SDS011;2065;49.790;9.620;2022-10-15T02:12:35;3.10;;;2.73;;
4102;SDS011;2065;49.790;9.620;2022-10-15T02:15:15;3.83;;;3.40;;
4102;SDS011;2065;49.790;9.620;2022-10-15T02:17:50;3.70;;;2.90;;
4102;SDS011;2065;49.790;9.620;2022-10-15T02:20:27;4.70;;;2.73;;
4102;SDS011;2065;49.790;9.620;2022-10-15T02:23:01;6.17;;;3.20;;
4102;SDS011;2065;49.790;9.620;2022-10-15T02:25:33;3.27;;;2.73;;
4102;SDS011;2065;49.790;9.620;2022-10-15T02:28:04;6.17;;;3.20;;
4102;SDS011;2065;49.790;9.620;2022-10-15T02:30:33;6.00;;;2.87;;
4102;SDS011;2065;49.790;9.620;2022-10-15T02:33:06;3.90;;;3.00;;
4102;SDS011;2065;49.790;9.620;2022-10-15T02:35:34;3.23;;;2.90;;
4102;SDS011;2065;49.790;9.620;2022-10-15T02:38:05;5.20;;;3.33;;
4102;SDS011;2065;49.790;9.620;2022-10-15T02:40:35;3.90;;;3.10;;
4102;SDS011;2065;49.790;9.620;2022-10-15T02:43:04;3.37;;;2.93;;
4102;SDS011;2065;49.790;9.620;2022-10-15T02:45:33;4.23;;;3.10;;
4102;SDS011;2065;49.790;9.620;2022-10-15T02:48:01;4.53;;;3.30;;
4102;SDS011;2065;49.790;9.620;2022-10-15T02:50:29;4.20;;;3.30;;
4102;SDS011;2065;49.790;9.620;2022-10-15T02:52:56;4.30;;;3.50;;
4102;SDS011;2065;49.790;9.620;2022-10-15T02:55:24;4.93;;;3.77;;
4102;SDS011;2065;49.790;9.620;2022-10-15T02:57:51;4.40;;;3.27;;
4102;SDS011;2065;49.790;9.620;2022-10-15T03:00:18;4.17;;;3.77;;
4102;SDS011;2065;49.790;9.620;2022-10-15T03:02:47;11.50;;;3.97;;
4102;SDS011;2065;49.790;9.620;2022-10-15T03:05:16;5.70;;;4.13;;
4102;SDS011;2065;49.790;9.620;2022-10-15T03:07:45;5.37;;;4.40;;
4102;SDS011;2065;49.790;9.620;2022-10-15T03:10:13;4.30;;;3.70;;
4102;SDS011;2065;49.790;9.620;2022-10-15T03:12:40;4.17;;;3.77;;
4102;SDS011;2065;49.790;9.620;2022-10-15T03:15:09;11.20;;;4.50;;
4102;SDS011;2065;49.790;9.620;2022-10-15T03:17:36;4.83;;;3.33;;
4102;SDS011;2065;49.790;9.620;2022-10-15T03:20:04;6.00;;;4.17;;
4102;SDS011;2065;49.790;9.620;2022-10-15T03:22:35;4.80;;;3.97;;
4102;SDS011;2065;49.790;9.620;2022-10-15T03:25:04;4.73;;;3.60;;
4102;SDS011;2065;49.790;9.620;2022-10-15T03:27:32;9.57;;;4.57;;
4102;SDS011;2065;49.790;9.620;2022-10-15T03:30:00;4.70;;;3.93;;
4102;SDS011;2065;49.790;9.620;2022-10-15T03:32:29;3.80;;;3.50;;
4102;SDS011;2065;49.790;9.620;2022-10-15T03:34:57;4.77;;;4.07;;
4102;SDS011;2065;49.790;9.620;2022-10-15T03:37:24;8.80;;;5.30;;
4102;SDS011;2065;49.790;9.620;2022-10-15T03:39:51;5.90;;;4.77;;
4102;SDS011;2065;49.790;9.620;2022-10-15T03:42:20;8.73;;;6.00;;
4102;SDS011;2065;49.790;9.620;2022-10-15T03:44:48;5.53;;;5.00;;
4102;SDS011;2065;49.790;9.620;2022-10-15T03:47:18;5.50;;;4.53;;
4102;SDS011;2065;49.790;9.620;2022-10-15T03:49:47;11.17;;;6.87;;
4102;SDS011;2065;49.790;9.620;2022-10-15T03:52:14;7.37;;;5.33;;
4102;SDS011;2065;49.790;9.620;2022-10-15T03:54:43;4.23;;;3.63;;
4102;SDS011;2065;49.790;9.620;2022-10-15T03:57:13;6.07;;;4.90;;
4102;SDS011;2065;49.790;9.620;2022-10-15T03:59:46;4.13;;;3.73;;
4102;SDS011;2065;49.790;9.620;2022-10-15T04:02:14;5.60;;;4.17;;
4102;SDS011;2065;49.790;9.620;2022-10-15T04:04:41;6.33;;;3.43;;
4102;SDS011;2065;49.790;9.620;2022-10-15T04:07:08;3.53;;;3.33;;
4102;SDS011;2065;49.790;9.620;2022-10-15T04:09:37;3.30;;;3.00;;
4102;SDS011;2065;49.790;9.620;2022-10-15T04:12:24;6.33;;;2.43;;
4102;SDS011;2065;49.790;9.620;2022-10-15T04:14:53;3.87;;;2.70;;
4102;SDS011;2065;49.790;9.620;2022-10-15T04:17:20;2.57;;;2.37;;
4102;SDS011;2065;49.790;9.620;2022-10-15T04:19:48;2.90;;;2.70;;
4102;SDS011;2065;49.790;9.620;2022-10-15T04:22:15;3.17;;;2.97;;
4102;SDS011;2065;49.790;9.620;2022-10-15T04:24:47;5.10;;;3.33;;
4102;SDS011;2065;49.790;9.620;2022-10-15T04:27:24;2.90;;;2.70;;
4102;SDS011;2065;49.790;9.620;2022-10-15T04:29:58;2.70;;;2.50;;
4102;SDS011;2065;49.790;9.620;2022-10-15T04:32:26;2.80;;;2.60;;
4102;SDS011;2065;49.790;9.620;2022-10-15T04:34:54;2.70;;;2.50;;
4102;SDS011;2065;49.790;9.620;2022-10-15T04:37:31;2.43;;;2.23;;
4102;SDS011;2065;49.790;9.620;2022-10-15T04:39:58;4.60;;;4.17;;
4102;SDS011;2065;49.790;9.620;2022-10-15T04:42:27;6.70;;;5.50;;
4102;SDS011;2065;49.790;9.620;2022-10-15T04:44:55;7.80;;;6.37;;
4102;SDS011;2065;49.790;9.620;2022-10-15T04:47:23;6.30;;;5.10;;
4102;SDS011;2065;49.790;9.620;2022-10-15T04:50:01;3.20;;;2.90;;
4102;SDS011;2065;49.790;9.620;2022-10-15T04:52:51;6.90;;;2.70;;
4102;SDS011;2065;49.790;9.620;2022-10-15T04:55:18;3.50;;;3.20;;
4102;SDS011;2065;49.790;9.620;2022-10-15T04:57:46;2.50;;;2.30;;
4102;SDS011;2065;49.790;9.620;2022-10-15T05:00:16;4.40;;;2.90;;
4102;SDS011;2065;49.790;9.620;2022-10-15T05:03:12;2.77;;;2.17;;
4102;SDS011;2065;49.790;9.620;2022-10-15T05:05:49;4.30;;;2.90;;
4102;SDS011;2065;49.790;9.620;2022-10-15T05:08:16;4.00;;;3.60;;
4102;SDS011;2065;49.790;9.620;2022-10-15T05:10:59;3.10;;;2.67;;
4102;SDS011;2065;49.790;9.620;2022-10-15T05:13:28;18.30;;;8.33;;
4102;SDS011;2065;49.790;9.620;2022-10-15T05:15:56;6.40;;;4.73;;
4102;SDS011;2065;49.790;9.620;2022-10-15T05:18:35;11.03;;;7.30;;
4102;SDS011;2065;49.790;9.620;2022-10-15T05:21:03;10.00;;;7.03;;
4102;SDS011;2065;49.790;9.620;2022-10-15T05:23:30;6.50;;;5.10;;
4102;SDS011;2065;49.790;9.620;2022-10-15T05:26:11;10.73;;;8.40;;
4102;SDS011;2065;49.790;9.620;2022-10-15T05:28:39;29.43;;;18.97;;
4102;SDS011;2065;49.790;9.620;2022-10-15T05:31:07;5.40;;;4.80;;
4102;SDS011;2065;49.790;9.620;2022-10-15T05:33:37;15.93;;;11.63;;
4102;SDS011;2065;49.790;9.620;2022-10-15T05:36:08;5.27;;;4.77;;
4102;SDS011;2065;49.790;9.620;2022-10-15T05:38:36;4.70;;;3.93;;
4102;SDS011;2065;49.790;9.620;2022-10-15T05:41:03;7.80;;;4.63;;
4102;SDS011;2065;49.790;9.620;2022-10-15T05:43:31;6.27;;;5.23;;
4102;SDS011;2065;49.790;9.620;2022-10-15T05:46:00;6.47;;;5.53;;
4102;SDS011;2065;49.790;9.620;2022-10-15T05:48:27;5.53;;;4.90;;
4102;SDS011;2065;49.790;9.620;2022-10-15T05:51:00;5.30;;;4.80;;
4102;SDS011;2065;49.790;9.620;2022-10-15T05:53:28;5.30;;;4.53;;
4102;SDS011;2065;49.790;9.620;2022-10-15T05:56:02;5.53;;;4.70;;
4102;SDS011;2065;49.790;9.620;2022-10-15T05:58:31;4.97;;;4.47;;
4102;SDS011;2065;49.790;9.620;2022-10-15T06:01:00;5.70;;;5.10;;
4102;SDS011;2065;49.790;9.620;2022-10-15T06:03:30;5.60;;;4.40;;
4102;SDS011;2065;49.790;9.620;2022-10-15T06:05:57;4.90;;;3.80;;
4102;SDS011;2065;49.790;9.620;2022-10-15T06:08:28;72.10;;;8.17;;
4102;SDS011;2065;49.790;9.620;2022-10-15T06:11:00;8.30;;;5.30;;
4102;SDS011;2065;49.790;9.620;2022-10-15T06:13:27;8.77;;;5.87;;
4102;SDS011;2065;49.790;9.620;2022-10-15T06:15:55;10.20;;;6.13;;
4102;SDS011;2065;49.790;9.620;2022-10-15T06:18:22;5.57;;;4.60;;
4102;SDS011;2065;49.790;9.620;2022-10-15T06:20:50;8.30;;;5.67;;
4102;SDS011;2065;49.790;9.620;2022-10-15T06:23:19;8.87;;;7.27;;
4102;SDS011;2065;49.790;9.620;2022-10-15T06:25:48;6.80;;;6.10;;
4102;SDS011;2065;49.790;9.620;2022-10-15T06:28:15;7.97;;;6.80;;
4102;SDS011;2065;49.790;9.620;2022-10-15T06:30:43;9.13;;;5.53;;
4102;SDS011;2065;49.790;9.620;2022-10-15T06:33:10;17.80;;;16.10;;
4102;SDS011;2065;49.790;9.620;2022-10-15T06:35:37;13.27;;;11.90;;
4102;SDS011;2065;49.790;9.620;2022-10-15T06:38:05;7.93;;;7.20;;
4102;SDS011;2065;49.790;9.620;2022-10-15T06:40:34;4.17;;;3.57;;
4102;SDS011;2065;49.790;9.620;2022-10-15T06:43:03;9.90;;;6.77;;
4102;SDS011;2065;49.790;9.620;2022-10-15T06:45:32;6.17;;;4.80;;
4102;SDS011;2065;49.790;9.620;2022-10-15T06:48:05;6.30;;;5.13;;
4102;SDS011;2065;49.790;9.620;2022-10-15T06:50:32;4.40;;;2.90;;
4102;SDS011;2065;49.790;9.620;2022-10-15T06:53:00;3.90;;;2.57;;
4102;SDS011;2065;49.790;9.620;2022-10-15T06:55:28;5.40;;;4.77;;
4102;SDS011;2065;49.790;9.620;2022-10-15T06:57:56;9.60;;;5.50;;
4102;SDS011;2065;49.790;9.620;2022-10-15T07:00:25;2.73;;;2.40;;
4102;SDS011;2065;49.790;9.620;2022-10-15T07:02:52;3.87;;;2.60;;
4102;SDS011;2065;49.790;9.620;2022-10-15T07:05:19;1.90;;;1.70;;
4102;SDS011;2065;49.790;9.620;2022-10-15T07:07:50;2.67;;;2.47;;
4102;SDS011;2065;49.790;9.620;2022-10-15T07:10:18;2.17;;;1.97;;
4102;SDS011;2065;49.790;9.620;2022-10-15T07:12:46;2.33;;;2.13;;
4102;SDS011;2065;49.790;9.620;2022-10-15T07:15:14;2.60;;;1.90;;
4102;SDS011;2065;49.790;9.620;2022-10-15T07:17:45;2.60;;;1.90;;
4102;SDS011;2065;49.790;9.620;2022-10-15T07:20:13;3.30;;;3.00;;
4102;SDS011;2065;49.790;9.620;2022-10-15T07:22:40;3.00;;;2.10;;
4102;SDS011;2065;49.790;9.620;2022-10-15T07:25:08;1.30;;;1.20;;
4102;SDS011;2065;49.790;9.620;2022-10-15T07:27:36;2.73;;;1.00;;
4102;SDS011;2065;49.790;9.620;2022-10-15T07:30:04;2.50;;;2.30;;
4102;SDS011;2065;49.790;9.620;2022-10-15T07:32:34;1.93;;;1.10;;
4102;SDS011;2065;49.790;9.620;2022-10-15T07:35:01;1.23;;;1.00;;
4102;SDS011;2065;49.790;9.620;2022-10-15T07:37:29;1.40;;;1.23;;
4102;SDS011;2065;49.790;9.620;2022-10-15T07:39:56;1.10;;;0.90;;
4102;SDS011;2065;49.790;9.620;2022-10-15T07:42:23;1.33;;;1.23;;
4102;SDS011;2065;49.790;9.620;2022-10-15T07:44:50;6.13;;;2.60;;
4102;SDS011;2065;49.790;9.620;2022-10-15T07:47:17;6.63;;;3.67;;
4102;SDS011;2065;49.790;9.620;2022-10-15T07:49:46;5.50;;;2.50;;
4102;SDS011;2065;49.790;9.620;2022-10-15T07:52:13;2.40;;;1.70;;
4102;SDS011;2065;49.790;9.620;2022-10-15T07:54:41;1.67;;;1.53;;
4102;SDS011;2065;49.790;9.620;2022-10-15T07:57:08;9.20;;;1.97;;
4102;SDS011;2065;49.790;9.620;2022-10-15T07:59:35;1.70;;;1.27;;
4102;SDS011;2065;49.790;9.620;2022-10-15T08:02:02;2.13;;;1.20;;
4102;SDS011;2065;49.790;9.620;2022-10-15T08:04:29;2.07;;;1.20;;
4102;SDS011;2065;49.790;9.620;2022-10-15T08:07:00;1.87;;;1.73;;
4102;SDS011;2065;49.790;9.620;2022-10-15T08:09:27;1.00;;;0.90;;
4102;SDS011;2065;49.790;9.620;2022-10-15T08:11:54;1.47;;;1.20;;
4102;SDS011;2065;49.790;9.620;2022-10-15T08:14:21;2.13;;;1.30;;
4102;SDS011;2065;49.790;9.620;2022-10-15T08:16:48;2.27;;;1.40;;
4102;SDS011;2065;49.790;9.620;2022-10-15T08:19:15;3.00;;;1.40;;
4102;SDS011;2065;49.790;9.620;2022-10-15T08:21:44;1.50;;;1.30;;
4102;SDS011;2065;49.790;9.620;2022-10-15T08:24:12;1.50;;;1.40;;
4102;SDS011;2065;49.790;9.620;2022-10-15T08:26:39;1.00;;;0.90;;
4102;SDS011;2065;49.790;9.620;2022-10-15T08:29:06;1.23;;;1.13;;
4102;SDS011;2065;49.790;9.620;2022-10-15T08:31:35;1.03;;;0.93;;
4102;SDS011;2065;49.790;9.620;2022-10-15T08:34:02;8.27;;;5.60;;
4102;SDS011;2065;49.790;9.620;2022-10-15T08:36:29;4.63;;;4.20;;
4102;SDS011;2065;49.790;9.620;2022-10-15T08:38:56;2.00;;;1.50;;
4102;SDS011;2065;49.790;9.620;2022-10-15T08:41:25;2.13;;;1.93;;
4102;SDS011;2065;49.790;9.620;2022-10-15T08:43:57;3.50;;;3.17;;
4102;SDS011;2065;49.790;9.620;2022-10-15T08:46:27;4.83;;;3.90;;
4102;SDS011;2065;49.790;9.620;2022-10-15T08:48:59;7.17;;;5.20;;
4102;SDS011;2065;49.790;9.620;2022-10-15T08:51:29;9.10;;;5.40;;
4102;SDS011;2065;49.790;9.620;2022-10-15T08:54:03;7.20;;;3.67;;
4102;SDS011;2065;49.790;9.620;2022-10-15T08:56:37;2.43;;;2.23;;
4102;SDS011;2065;49.790;9.620;2022-10-15T08:59:07;1.90;;;1.70;;
4102;SDS011;2065;49.790;9.620;2022-10-15T09:01:48;1.93;;;1.67;;
4102;SDS011;2065;49.790;9.620;2022-10-15T09:04:20;1.60;;;1.50;;
4102;SDS011;2065;49.790;9.620;2022-10-15T09:06:54;2.90;;;1.70;;
4102;SDS011;2065;49.790;9.620;2022-10-15T09:09:27;1.83;;;1.57;;
4102;SDS011;2065;49.790;9.620;2022-10-15T09:12:03;2.20;;;1.50;;
4102;SDS011;2065;49.790;9.620;2022-10-15T09:14:40;1.70;;;1.60;;
4102;SDS011;2065;49.790;9.620;2022-10-15T09:17:13;2.30;;;1.73;;
4102;SDS011;2065;49.790;9.620;2022-10-15T09:19:46;2.53;;;2.13;;
4102;SDS011;2065;49.790;9.620;2022-10-15T09:22:18;2.17;;;1.67;;
4102;SDS011;2065;49.790;9.620;2022-10-15T09:24:49;2.83;;;1.87;;
4102;SDS011;2065;49.790;9.620;2022-10-15T09:27:18;1.53;;;1.43;;
4102;SDS011;2065;49.790;9.620;2022-10-15T09:29:54;2.03;;;1.90;;
4102;SDS011;2065;49.790;9.620;2022-10-15T09:32:29;2.60;;;2.03;;
4102;SDS011;2065;49.790;9.620;2022-10-15T09:35:03;1.80;;;1.70;;
4102;SDS011;2065;49.790;9.620;2022-10-15T09:37:42;1.70;;;1.60;;
4102;SDS011;2065;49.790;9.620;2022-10-15T09:40:26;3.57;;;1.70;;
4102;SDS011;2065;49.790;9.620;2022-10-15T09:43:02;1.67;;;1.57;;
4102;SDS011;2065;49.790;9.620;2022-10-15T09:45:31;2.07;;;1.50;;
4102;SDS011;2065;49.790;9.620;2022-10-15T09:47:59;2.97;;;1.87;;
4102;SDS011;2065;49.790;9.620;2022-10-15T09:50:34;1.57;;;1.47;;
4102;SDS011;2065;49.790;9.620;2022-10-15T09:53:12;1.60;;;1.50;;
4102;SDS011;2065;49.790;9.620;2022-10-15T09:55:46;1.60;;;1.50;;
4102;SDS011;2065;49.790;9.620;2022-10-15T09:58:21;1.80;;;1.70;;
4102;SDS011;2065;49.790;9.620;2022-10-15T10:00:51;2.10;;;1.90;;
4102;SDS011;2065;49.790;9.620;2022-10-15T10:03:26;1.30;;;1.20;;
4102;SDS011;2065;49.790;9.620;2022-10-15T10:05:58;1.50;;;1.40;;
4102;SDS011;2065;49.790;9.620;2022-10-15T10:08:37;1.60;;;1.40;;
4102;SDS011;2065;49.790;9.620;2022-10-15T10:11:08;2.40;;;1.93;;
4102;SDS011;2065;49.790;9.620;2022-10-15T10:13:39;2.77;;;2.57;;
4102;SDS011;2065;49.790;9.620;2022-10-15T10:16:12;6.83;;;2.23;;
4102;SDS011;2065;49.790;9.620;2022-10-15T10:18:39;3.77;;;1.40;;
4102;SDS011;2065;49.790;9.620;2022-10-15T10:21:21;2.77;;;2.50;;
4102;SDS011;2065;49.790;9.620;2022-10-15T10:23:50;6.40;;;5.10;;
4102;SDS011;2065;49.790;9.620;2022-10-15T10:26:17;1.90;;;1.80;;
4102;SDS011;2065;49.790;9.620;2022-10-15T10:28:51;1.97;;;1.87;;
4102;SDS011;2065;49.790;9.620;2022-10-15T10:31:26;1.60;;;1.33;;
4102;SDS011;2065;49.790;9.620;2022-10-15T10:33:55;2.60;;;2.30;;
4102;SDS011;2065;49.790;9.620;2022-10-15T10:36:26;2.30;;;2.10;;
4102;SDS011;2065;49.790;9.620;2022-10-15T10:38:55;1.30;;;1.20;;
4102;SDS011;2065;49.790;9.620;2022-10-15T10:44:21;2.80;;;1.47;;
4102;SDS011;2065;49.790;9.620;2022-10-15T10:47:03;0.87;;;0.87;;
4102;SDS011;2065;49.790;9.620;2022-10-15T10:49:36;1.07;;;0.97;;
4102;SDS011;2065;49.790;9.620;2022-10-15T10:52:10;1.33;;;0.90;;
4102;SDS011;2065;49.790;9.620;2022-10-15T10:54:45;1.00;;;0.90;;
4102;SDS011;2065;49.790;9.620;2022-10-15T10:57:14;2.13;;;1.20;;
4102;SDS011;2065;49.790;9.620;2022-10-15T10:59:50;2.30;;;1.03;;
4102;SDS011;2065;49.790;9.620;2022-10-15T11:02:20;1.00;;;0.90;;
4102;SDS011;2065;49.790;9.620;2022-10-15T11:04:47;1.00;;;0.90;;
4102;SDS011;2065;49.790;9.620;2022-10-15T11:07:16;1.00;;;0.90;;
4102;SDS011;2065;49.790;9.620;2022-10-15T11:09:51;1.23;;;1.13;;
4102;SDS011;2065;49.790;9.620;2022-10-15T11:15:29;1.20;;;0.90;;
4102;SDS011;2065;49.790;9.620;2022-10-15T11:18:11;1.20;;;1.07;;
4102;SDS011;2065;49.790;9.620;2022-10-15T11:20:52;3.10;;;1.13;;
4102;SDS011;2065;49.790;9.620;2022-10-15T11:23:33;1.30;;;1.10;;
4102;SDS011;2065;49.790;9.620;2022-10-15T11:26:15;1.07;;;0.97;;
4102;SDS011;2065;49.790;9.620;2022-10-15T11:28:54;0.80;;;0.80;;
4102;SDS011;2065;49.790;9.620;2022-10-15T11:31:31;1.00;;;0.90;;
4102;SDS011;2065;49.790;9.620;2022-10-15T11:34:10;0.90;;;0.80;;
4102;SDS011;2065;49.790;9.620;2022-10-15T11:36:51;1.20;;;0.90;;
4102;SDS011;2065;49.790;9.620;2022-10-15T11:39:29;1.77;;;1.00;;
4102;SDS011;2065;49.790;9.620;2022-10-15T11:42:09;0.87;;;0.83;;
4102;SDS011;2065;49.790;9.620;2022-10-15T11:44:50;0.90;;;0.90;;
4102;SDS011;2065;49.790;9.620;2022-10-15T11:47:30;1.00;;;0.90;;
4102;SDS011;2065;49.790;9.620;2022-10-15T11:50:14;1.10;;;1.00;;
4102;SDS011;2065;49.790;9.620;2022-10-15T11:52:50;1.33;;;1.23;;
4102;SDS011;2065;49.790;9.620;2022-10-15T11:55:38;1.60;;;1.50;;
4102;SDS011;2065;49.790;9.620;2022-10-15T11:58:10;1.53;;;1.10;;
4102;SDS011;2065;49.790;9.620;2022-10-15T12:00:41;2.07;;;0.90;;
4102;SDS011;2065;49.790;9.620;2022-10-15T12:03:14;1.73;;;0.90;;
4102;SDS011;2065;49.790;9.620;2022-10-15T12:05:45;0.97;;;0.87;;
4102;SDS011;2065;49.790;9.620;2022-10-15T12:08:17;0.80;;;0.80;;
4102;SDS011;2065;49.790;9.620;2022-10-15T12:10:55;1.00;;;0.90;;
4102;SDS011;2065;49.790;9.620;2022-10-15T12:13:34;1.10;;;0.90;;
4102;SDS011;2065;49.790;9.620;2022-10-15T12:16:10;1.37;;;1.10;;
4102;SDS011;2065;49.790;9.620;2022-10-15T12:18:46;0.87;;;0.80;;
4102;SDS011;2065;49.790;9.620;2022-10-15T12:24:01;1.90;;;1.00;;
4102;SDS011;2065;49.790;9.620;2022-10-15T12:26:31;1.00;;;0.90;;
4102;SDS011;2065;49.790;9.620;2022-10-15T12:29:02;1.50;;;0.90;;
4102;SDS011;2065;49.790;9.620;2022-10-15T12:31:46;1.00;;;0.90;;
4102;SDS011;2065;49.790;9.620;2022-10-15T12:34:28;0.90;;;0.80;;
4102;SDS011;2065;49.790;9.620;2022-10-15T12:36:58;1.07;;;0.97;;
4102;SDS011;2065;49.790;9.620;2022-10-15T12:39:27;2.07;;;0.80;;
4102;SDS011;2065;49.790;9.620;2022-10-15T12:41:54;1.20;;;1.00;;
4102;SDS011;2065;49.790;9.620;2022-10-15T12:44:23;1.27;;;1.07;;
4102;SDS011;2065;49.790;9.620;2022-10-15T12:46:52;1.37;;;1.00;;
4102;SDS011;2065;49.790;9.620;2022-10-15T12:55:30;0.90;;;0.80;;
4102;SDS011;2065;49.790;9.620;2022-10-15T12:57:59;1.23;;;0.80;;
4102;SDS011;2065;49.790;9.620;2022-10-15T13:06:13;1.03;;;0.90;;
4102;SDS011;2065;49.790;9.620;2022-10-15T13:09:04;3.63;;;1.00;;
4102;SDS011;2065;49.790;9.620;2022-10-15T13:11:45;0.90;;;0.83;;
4102;SDS011;2065;49.790;9.620;2022-10-15T13:14:18;2.13;;;1.20;;
4102;SDS011;2065;49.790;9.620;2022-10-15T13:16:58;1.17;;;1.00;;
4102;SDS011;2065;49.790;9.620;2022-10-15T13:19:28;1.27;;;1.17;;
4102;SDS011;2065;49.790;9.620;2022-10-15T13:22:01;1.40;;;1.30;;
4102;SDS011;2065;49.790;9.620;2022-10-15T13:24:38;3.27;;;1.37;;
4102;SDS011;2065;49.790;9.620;2022-10-15T13:27:13;4.93;;;1.20;;
4102;SDS011;2065;49.790;9.620;2022-10-15T13:29:51;1.67;;;1.57;;
4102;SDS011;2065;49.790;9.620;2022-10-15T13:32:20;23.60;;;11.00;;
4102;SDS011;2065;49.790;9.620;2022-10-15T13:34:48;10.80;;;5.83;;
4102;SDS011;2065;49.790;9.620;2022-10-15T13:37:17;3.03;;;1.70;;
4102;SDS011;2065;49.790;9.620;2022-10-15T13:39:48;3.77;;;1.13;;
4102;SDS011;2065;49.790;9.620;2022-10-15T13:42:17;1.20;;;1.10;;
4102;SDS011;2065;49.790;9.620;2022-10-15T13:44:55;1.10;;;1.00;;
4102;SDS011;2065;49.790;9.620;2022-10-15T13:47:25;1.40;;;1.10;;
4102;SDS011;2065;49.790;9.620;2022-10-15T13:50:10;1.20;;;1.00;;
4102;SDS011;2065;49.790;9.620;2022-10-15T13:52:50;1.70;;;1.00;;
4102;SDS011;2065;49.790;9.620;2022-10-15T13:55:21;0.97;;;0.87;;
4102;SDS011;2065;49.790;9.620;2022-10-15T13:57:50;1.50;;;0.70;;
4102;SDS011;2065;49.790;9.620;2022-10-15T14:00:22;1.07;;;0.97;;
4102;SDS011;2065;49.790;9.620;2022-10-15T14:03:08;2.33;;;0.97;;
4102;SDS011;2065;49.790;9.620;2022-10-15T14:05:38;0.87;;;0.77;;
4102;SDS011;2065;49.790;9.620;2022-10-15T14:08:13;0.80;;;0.63;;
4102;SDS011;2065;49.790;9.620;2022-10-15T14:10:41;2.70;;;1.27;;
4102;SDS011;2065;49.790;9.620;2022-10-15T14:13:08;2.13;;;1.00;;
4102;SDS011;2065;49.790;9.620;2022-10-15T14:15:40;4.50;;;0.90;;
4102;SDS011;2065;49.790;9.620;2022-10-15T14:18:09;1.60;;;0.73;;
4102;SDS011;2065;49.790;9.620;2022-10-15T14:20:41;1.10;;;0.70;;
4102;SDS011;2065;49.790;9.620;2022-10-15T14:23:14;0.90;;;0.70;;
4102;SDS011;2065;49.790;9.620;2022-10-15T14:25:42;1.00;;;0.90;;
4102;SDS011;2065;49.790;9.620;2022-10-15T14:28:16;0.97;;;0.87;;
4102;SDS011;2065;49.790;9.620;2022-10-15T14:30:46;4.30;;;3.90;;
4102;SDS011;2065;49.790;9.620;2022-10-15T14:33:28;1.93;;;0.90;;
4102;SDS011;2065;49.790;9.620;2022-10-15T14:36:02;1.53;;;0.90;;
4102;SDS011;2065;49.790;9.620;2022-10-15T14:38:33;0.90;;;0.80;;
4102;SDS011;2065;49.790;9.620;2022-10-15T14:41:01;1.20;;;0.90;;
4102;SDS011;2065;49.790;9.620;2022-10-15T14:43:34;1.47;;;0.90;;
4102;SDS011;2065;49.790;9.620;2022-10-15T14:46:02;0.97;;;0.80;;
4102;SDS011;2065;49.790;9.620;2022-10-15T14:48:32;1.00;;;0.90;;
4102;SDS011;2065;49.790;9.620;2022-10-15T14:51:02;1.07;;;0.90;;
4102;SDS011;2065;49.790;9.620;2022-10-15T14:53:31;2.07;;;1.00;;
4102;SDS011;2065;49.790;9.620;2022-10-15T14:56:03;1.10;;;1.00;;
4102;SDS011;2065;49.790;9.620;2022-10-15T14:58:34;1.43;;;1.07;;
4102;SDS011;2065;49.790;9.620;2022-10-15T15:01:03;0.70;;;0.60;;
4102;SDS011;2065;49.790;9.620;2022-10-15T15:03:37;1.40;;;1.07;;
4102;SDS011;2065;49.790;9.620;2022-10-15T15:06:06;1.57;;;1.47;;
4102;SDS011;2065;49.790;9.620;2022-10-15T15:08:35;3.87;;;1.00;;
4102;SDS011;2065;49.790;9.620;2022-10-15T15:11:03;2.57;;;1.23;;
4102;SDS011;2065;49.790;9.620;2022-10-15T15:13:36;0.90;;;0.80;;
4102;SDS011;2065;49.790;9.620;2022-10-15T15:16:05;1.10;;;1.00;;
4102;SDS011;2065;49.790;9.620;2022-10-15T15:18:32;1.17;;;1.07;;
4102;SDS011;2065;49.790;9.620;2022-10-15T15:21:00;1.40;;;1.10;;
4102;SDS011;2065;49.790;9.620;2022-10-15T15:23:30;0.90;;;0.80;;
4102;SDS011;2065;49.790;9.620;2022-10-15T15:26:00;0.90;;;0.80;;
4102;SDS011;2065;49.790;9.620;2022-10-15T15:28:28;1.30;;;1.00;;
4102;SDS011;2065;49.790;9.620;2022-10-15T15:30:56;1.00;;;0.90;;
4102;SDS011;2065;49.790;9.620;2022-10-15T15:33:25;2.07;;;1.40;;
4102;SDS011;2065;49.790;9.620;2022-10-15T15:35:54;1.67;;;1.00;;
4102;SDS011;2065;49.790;9.620;2022-10-15T15:38:25;3.00;;;0.80;;
4102;SDS011;2065;49.790;9.620;2022-10-15T15:40:58;1.00;;;0.90;;
4102;SDS011;2065;49.790;9.620;2022-10-15T15:43:29;1.20;;;0.97;;
4102;SDS011;2065;49.790;9.620;2022-10-15T15:45:56;1.20;;;0.80;;
4102;SDS011;2065;49.790;9.620;2022-10-15T15:48:23;2.60;;;1.00;;
4102;SDS011;2065;49.790;9.620;2022-10-15T15:50:50;1.03;;;0.90;;
4102;SDS011;2065;49.790;9.620;2022-10-15T15:53:18;1.30;;;0.83;;
4102;SDS011;2065;49.790;9.620;2022-10-15T15:55:45;3.40;;;0.90;;
4102;SDS011;2065;49.790;9.620;2022-10-15T15:58:14;0.93;;;0.83;;
4102;SDS011;2065;49.790;9.620;2022-10-15T16:00:41;1.30;;;1.20;;
4102;SDS011;2065;49.790;9.620;2022-10-15T16:03:09;1.97;;;0.93;;
4102;SDS011;2065;49.790;9.620;2022-10-15T16:05:38;1.20;;;1.00;;